sensor_id;sensor_type;location;lat;lon;timestamp;P1;durP1;ratioP1;P2;durP2;ratioP2
78860;SDS011;68211;45.774;15.892;2023-05-31T00:02:23;13.98;;;8.93;;
78860;SDS011;68211;45.774;15.892;2023-05-31T00:04:50;12.80;;;9.15;;
78860;SDS011;68211;45.774;15.892;2023-05-31T00:07:16;16.80;;;10.15;;
78860;SDS011;68211;45.774;15.892;2023-05-31T00:09:43;18.88;;;9.25;;
78860;SDS011;68211;45.774;15.892;2023-05-31T00:12:09;13.60;;;9.43;;
78860;SDS011;68211;45.774;15.892;2023-05-31T00:14:36;16.35;;;9.63;;
78860;SDS011;68211;45.774;15.892;2023-05-31T00:17:04;11.93;;;8.85;;
78860;SDS011;68211;45.774;15.892;2023-05-31T00:19:50;13.52;;;8.68;;
78860;SDS011;68211;45.774;15.892;2023-05-31T00:22:17;14.07;;;9.40;;
78860;SDS011;68211;45.774;15.892;2023-05-31T00:24:43;14.60;;;9.82;;
78860;SDS011;68211;45.774;15.892;2023-05-31T00:27:10;16.88;;;9.10;;
78860;SDS011;68211;45.774;15.892;2023-05-31T00:29:36;14.98;;;9.38;;
78860;SDS011;68211;45.774;15.892;2023-05-31T00:32:04;15.50;;;9.18;;
78860;SDS011;68211;45.774;15.892;2023-05-31T00:34:31;12.63;;;8.45;;
78860;SDS011;68211;45.774;15.892;2023-05-31T00:36:58;11.30;;;8.10;;
78860;SDS011;68211;45.774;15.892;2023-05-31T00:39:24;15.80;;;8.05;;
78860;SDS011;68211;45.774;15.892;2023-05-31T00:41:50;16.85;;;9.23;;
78860;SDS011;68211;45.774;15.892;2023-05-31T00:44:17;14.93;;;9.15;;
78860;SDS011;68211;45.774;15.892;2023-05-31T00:46:43;12.45;;;7.80;;
78860;SDS011;68211;45.774;15.892;2023-05-31T00:49:11;16.15;;;9.02;;
78860;SDS011;68211;45.774;15.892;2023-05-31T00:51:38;14.23;;;8.07;;
78860;SDS011;68211;45.774;15.892;2023-05-31T00:54:04;11.57;;;8.27;;
78860;SDS011;68211;45.774;15.892;2023-05-31T00:56:31;11.32;;;7.68;;
78860;SDS011;68211;45.774;15.892;2023-05-31T00:58:58;11.02;;;8.18;;
78860;SDS011;68211;45.774;15.892;2023-05-31T01:01:25;9.30;;;7.63;;
78860;SDS011;68211;45.774;15.892;2023-05-31T01:03:52;9.90;;;8.43;;
78860;SDS011;68211;45.774;15.892;2023-05-31T01:06:20;10.52;;;8.05;;
78860;SDS011;68211;45.774;15.892;2023-05-31T01:08:47;19.55;;;8.73;;
78860;SDS011;68211;45.774;15.892;2023-05-31T01:11:16;12.10;;;8.27;;
78860;SDS011;68211;45.774;15.892;2023-05-31T01:13:46;9.85;;;7.47;;
78860;SDS011;68211;45.774;15.892;2023-05-31T01:16:16;11.95;;;7.32;;
78860;SDS011;68211;45.774;15.892;2023-05-31T01:18:44;11.13;;;7.18;;
78860;SDS011;68211;45.774;15.892;2023-05-31T01:21:12;13.80;;;7.43;;
78860;SDS011;68211;45.774;15.892;2023-05-31T01:23:46;14.27;;;6.95;;
78860;SDS011;68211;45.774;15.892;2023-05-31T01:26:29;11.85;;;7.45;;
78860;SDS011;68211;45.774;15.892;2023-05-31T01:28:58;11.73;;;7.38;;
78860;SDS011;68211;45.774;15.892;2023-05-31T01:31:25;10.50;;;7.78;;
78860;SDS011;68211;45.774;15.892;2023-05-31T01:33:53;11.85;;;7.57;;
78860;SDS011;68211;45.774;15.892;2023-05-31T01:36:20;8.57;;;6.88;;
78860;SDS011;68211;45.774;15.892;2023-05-31T01:38:46;11.43;;;7.50;;
78860;SDS011;68211;45.774;15.892;2023-05-31T01:41:13;9.23;;;6.82;;
78860;SDS011;68211;45.774;15.892;2023-05-31T01:43:41;10.73;;;7.10;;
78860;SDS011;68211;45.774;15.892;2023-05-31T01:46:09;11.85;;;6.97;;
78860;SDS011;68211;45.774;15.892;2023-05-31T01:48:37;10.65;;;7.03;;
78860;SDS011;68211;45.774;15.892;2023-05-31T01:51:03;15.65;;;6.90;;
78860;SDS011;68211;45.774;15.892;2023-05-31T01:53:32;13.93;;;7.70;;
78860;SDS011;68211;45.774;15.892;2023-05-31T01:55:58;11.48;;;7.30;;
78860;SDS011;68211;45.774;15.892;2023-05-31T01:58:25;13.20;;;7.10;;
78860;SDS011;68211;45.774;15.892;2023-05-31T02:00:53;12.43;;;7.05;;
78860;SDS011;68211;45.774;15.892;2023-05-31T02:03:19;16.52;;;7.30;;
78860;SDS011;68211;45.774;15.892;2023-05-31T02:05:56;13.40;;;7.32;;
78860;SDS011;68211;45.774;15.892;2023-05-31T02:08:22;15.65;;;7.30;;
78860;SDS011;68211;45.774;15.892;2023-05-31T02:10:49;10.40;;;7.28;;
78860;SDS011;68211;45.774;15.892;2023-05-31T02:13:16;11.18;;;7.32;;
78860;SDS011;68211;45.774;15.892;2023-05-31T02:15:42;6.82;;;6.00;;
78860;SDS011;68211;45.774;15.892;2023-05-31T02:18:10;17.05;;;6.70;;
78860;SDS011;68211;45.774;15.892;2023-05-31T02:20:37;15.73;;;7.90;;
78860;SDS011;68211;45.774;15.892;2023-05-31T02:23:04;13.38;;;6.90;;
78860;SDS011;68211;45.774;15.892;2023-05-31T02:25:30;8.70;;;6.25;;
78860;SDS011;68211;45.774;15.892;2023-05-31T02:27:56;8.68;;;5.85;;
78860;SDS011;68211;45.774;15.892;2023-05-31T02:30:26;8.25;;;5.70;;
78860;SDS011;68211;45.774;15.892;2023-05-31T02:32:53;11.52;;;5.72;;
78860;SDS011;68211;45.774;15.892;2023-05-31T02:35:21;8.45;;;5.80;;
78860;SDS011;68211;45.774;15.892;2023-05-31T02:37:47;8.98;;;5.57;;
78860;SDS011;68211;45.774;15.892;2023-05-31T02:40:14;12.50;;;5.60;;
78860;SDS011;68211;45.774;15.892;2023-05-31T02:42:40;9.63;;;5.80;;
78860;SDS011;68211;45.774;15.892;2023-05-31T02:45:07;14.07;;;6.13;;
78860;SDS011;68211;45.774;15.892;2023-05-31T02:47:35;12.55;;;5.40;;
78860;SDS011;68211;45.774;15.892;2023-05-31T02:50:02;10.18;;;5.82;;
78860;SDS011;68211;45.774;15.892;2023-05-31T02:52:30;8.98;;;5.22;;
78860;SDS011;68211;45.774;15.892;2023-05-31T02:54:56;7.63;;;5.65;;
78860;SDS011;68211;45.774;15.892;2023-05-31T02:57:22;14.30;;;5.72;;
78860;SDS011;68211;45.774;15.892;2023-05-31T02:59:49;9.35;;;5.78;;
78860;SDS011;68211;45.774;15.892;2023-05-31T03:02:15;11.45;;;5.93;;
78860;SDS011;68211;45.774;15.892;2023-05-31T03:04:42;12.63;;;5.53;;
78860;SDS011;68211;45.774;15.892;2023-05-31T03:07:08;9.35;;;5.60;;
78860;SDS011;68211;45.774;15.892;2023-05-31T03:09:36;8.77;;;5.75;;
78860;SDS011;68211;45.774;15.892;2023-05-31T03:12:03;11.23;;;5.75;;
78860;SDS011;68211;45.774;15.892;2023-05-31T03:14:29;9.10;;;5.78;;
78860;SDS011;68211;45.774;15.892;2023-05-31T03:16:56;11.20;;;5.68;;
78860;SDS011;68211;45.774;15.892;2023-05-31T03:19:23;6.75;;;5.20;;
78860;SDS011;68211;45.774;15.892;2023-05-31T03:21:49;11.52;;;5.88;;
78860;SDS011;68211;45.774;15.892;2023-05-31T03:24:16;10.27;;;5.45;;
78860;SDS011;68211;45.774;15.892;2023-05-31T03:26:43;13.27;;;6.45;;
78860;SDS011;68211;45.774;15.892;2023-05-31T03:29:10;5.93;;;5.13;;
78860;SDS011;68211;45.774;15.892;2023-05-31T03:31:36;10.82;;;5.47;;
78860;SDS011;68211;45.774;15.892;2023-05-31T03:34:03;9.50;;;5.28;;
78860;SDS011;68211;45.774;15.892;2023-05-31T03:36:29;9.18;;;5.28;;
78860;SDS011;68211;45.774;15.892;2023-05-31T03:38:56;7.57;;;5.05;;
78860;SDS011;68211;45.774;15.892;2023-05-31T03:41:22;6.75;;;5.35;;
78860;SDS011;68211;45.774;15.892;2023-05-31T03:43:50;10.45;;;5.43;;
78860;SDS011;68211;45.774;15.892;2023-05-31T03:46:17;9.73;;;4.95;;
78860;SDS011;68211;45.774;15.892;2023-05-31T03:48:43;7.55;;;4.97;;
78860;SDS011;68211;45.774;15.892;2023-05-31T03:51:10;7.00;;;5.15;;
78860;SDS011;68211;45.774;15.892;2023-05-31T03:53:36;10.63;;;4.72;;
78860;SDS011;68211;45.774;15.892;2023-05-31T03:56:03;9.40;;;4.88;;
78860;SDS011;68211;45.774;15.892;2023-05-31T03:58:29;8.80;;;5.43;;
78860;SDS011;68211;45.774;15.892;2023-05-31T04:00:57;5.13;;;4.68;;
78860;SDS011;68211;45.774;15.892;2023-05-31T04:03:24;6.18;;;4.90;;
78860;SDS011;68211;45.774;15.892;2023-05-31T04:05:51;7.13;;;5.43;;
78860;SDS011;68211;45.774;15.892;2023-05-31T04:08:17;13.20;;;6.03;;
78860;SDS011;68211;45.774;15.892;2023-05-31T04:10:44;12.18;;;5.30;;
78860;SDS011;68211;45.774;15.892;2023-05-31T04:13:10;9.70;;;5.30;;
78860;SDS011;68211;45.774;15.892;2023-05-31T04:15:37;10.63;;;4.90;;
78860;SDS011;68211;45.774;15.892;2023-05-31T04:18:05;11.77;;;5.07;;
78860;SDS011;68211;45.774;15.892;2023-05-31T04:20:31;12.77;;;5.57;;
78860;SDS011;68211;45.774;15.892;2023-05-31T04:22:58;10.27;;;4.65;;
78860;SDS011;68211;45.774;15.892;2023-05-31T04:25:24;8.45;;;5.15;;
78860;SDS011;68211;45.774;15.892;2023-05-31T04:27:51;7.80;;;5.10;;
78860;SDS011;68211;45.774;15.892;2023-05-31T04:30:17;9.68;;;4.97;;
78860;SDS011;68211;45.774;15.892;2023-05-31T04:32:44;10.25;;;5.30;;
78860;SDS011;68211;45.774;15.892;2023-05-31T04:35:12;9.77;;;4.78;;
78860;SDS011;68211;45.774;15.892;2023-05-31T04:37:38;9.00;;;5.07;;
78860;SDS011;68211;45.774;15.892;2023-05-31T04:40:05;6.60;;;4.75;;
78860;SDS011;68211;45.774;15.892;2023-05-31T04:42:32;12.50;;;4.78;;
78860;SDS011;68211;45.774;15.892;2023-05-31T04:44:58;9.23;;;4.75;;
78860;SDS011;68211;45.774;15.892;2023-05-31T04:47:25;11.80;;;5.22;;
78860;SDS011;68211;45.774;15.892;2023-05-31T04:49:51;8.95;;;4.65;;
78860;SDS011;68211;45.774;15.892;2023-05-31T04:52:22;10.77;;;5.25;;
78860;SDS011;68211;45.774;15.892;2023-05-31T04:54:48;11.45;;;5.05;;
78860;SDS011;68211;45.774;15.892;2023-05-31T04:57:14;11.35;;;4.97;;
78860;SDS011;68211;45.774;15.892;2023-05-31T04:59:41;6.75;;;4.75;;
78860;SDS011;68211;45.774;15.892;2023-05-31T05:02:07;11.98;;;5.65;;
78860;SDS011;68211;45.774;15.892;2023-05-31T05:04:34;13.75;;;5.10;;
78860;SDS011;68211;45.774;15.892;2023-05-31T05:07:00;11.68;;;5.07;;
78860;SDS011;68211;45.774;15.892;2023-05-31T05:09:28;10.73;;;4.78;;
78860;SDS011;68211;45.774;15.892;2023-05-31T05:11:54;12.57;;;5.07;;
78860;SDS011;68211;45.774;15.892;2023-05-31T05:14:21;12.32;;;4.70;;
78860;SDS011;68211;45.774;15.892;2023-05-31T05:16:47;6.45;;;4.28;;
78860;SDS011;68211;45.774;15.892;2023-05-31T05:19:14;12.13;;;4.70;;
78860;SDS011;68211;45.774;15.892;2023-05-31T05:21:40;11.27;;;4.43;;
78860;SDS011;68211;45.774;15.892;2023-05-31T05:24:07;6.93;;;4.60;;
78860;SDS011;68211;45.774;15.892;2023-05-31T05:26:35;8.90;;;4.88;;
78860;SDS011;68211;45.774;15.892;2023-05-31T05:29:03;13.27;;;4.63;;
78860;SDS011;68211;45.774;15.892;2023-05-31T05:31:29;12.65;;;5.45;;
78860;SDS011;68211;45.774;15.892;2023-05-31T05:33:56;9.68;;;4.32;;
78860;SDS011;68211;45.774;15.892;2023-05-31T05:36:22;8.68;;;4.75;;
78860;SDS011;68211;45.774;15.892;2023-05-31T05:38:49;8.98;;;5.10;;
78860;SDS011;68211;45.774;15.892;2023-05-31T05:41:15;11.15;;;4.63;;
78860;SDS011;68211;45.774;15.892;2023-05-31T05:43:43;9.48;;;4.32;;
78860;SDS011;68211;45.774;15.892;2023-05-31T05:46:10;7.32;;;4.50;;
78860;SDS011;68211;45.774;15.892;2023-05-31T05:48:36;10.40;;;4.57;;
78860;SDS011;68211;45.774;15.892;2023-05-31T05:51:03;9.93;;;4.65;;
78860;SDS011;68211;45.774;15.892;2023-05-31T05:53:29;10.48;;;4.65;;
78860;SDS011;68211;45.774;15.892;2023-05-31T05:55:56;7.38;;;4.32;;
78860;SDS011;68211;45.774;15.892;2023-05-31T05:58:22;7.30;;;4.13;;
78860;SDS011;68211;45.774;15.892;2023-05-31T06:00:50;9.98;;;4.18;;
78860;SDS011;68211;45.774;15.892;2023-05-31T06:03:16;12.00;;;4.70;;
78860;SDS011;68211;45.774;15.892;2023-05-31T06:05:43;6.65;;;4.00;;
78860;SDS011;68211;45.774;15.892;2023-05-31T06:08:10;16.90;;;4.70;;
78860;SDS011;68211;45.774;15.892;2023-05-31T06:10:36;9.77;;;4.60;;
78860;SDS011;68211;45.774;15.892;2023-05-31T06:13:04;7.53;;;4.97;;
78860;SDS011;68211;45.774;15.892;2023-05-31T06:15:30;8.82;;;4.57;;
78860;SDS011;68211;45.774;15.892;2023-05-31T06:17:58;8.85;;;5.10;;
78860;SDS011;68211;45.774;15.892;2023-05-31T06:20:25;10.48;;;4.78;;
78860;SDS011;68211;45.774;15.892;2023-05-31T06:22:51;11.82;;;4.80;;
78860;SDS011;68211;45.774;15.892;2023-05-31T06:25:18;9.68;;;4.70;;
78860;SDS011;68211;45.774;15.892;2023-05-31T06:27:44;7.75;;;5.00;;
78860;SDS011;68211;45.774;15.892;2023-05-31T06:30:11;11.35;;;5.03;;
78860;SDS011;68211;45.774;15.892;2023-05-31T06:32:38;6.25;;;4.70;;
78860;SDS011;68211;45.774;15.892;2023-05-31T06:35:06;11.35;;;4.97;;
78860;SDS011;68211;45.774;15.892;2023-05-31T06:37:32;10.32;;;4.93;;
78860;SDS011;68211;45.774;15.892;2023-05-31T06:39:59;10.00;;;4.80;;
78860;SDS011;68211;45.774;15.892;2023-05-31T06:42:25;12.02;;;5.15;;
78860;SDS011;68211;45.774;15.892;2023-05-31T06:44:52;10.48;;;4.82;;
78860;SDS011;68211;45.774;15.892;2023-05-31T06:47:22;10.82;;;4.80;;
78860;SDS011;68211;45.774;15.892;2023-05-31T06:49:48;13.48;;;5.47;;
78860;SDS011;68211;45.774;15.892;2023-05-31T06:52:16;7.25;;;4.53;;
78860;SDS011;68211;45.774;15.892;2023-05-31T06:54:43;8.98;;;5.18;;
78860;SDS011;68211;45.774;15.892;2023-05-31T06:57:09;8.00;;;4.88;;
78860;SDS011;68211;45.774;15.892;2023-05-31T06:59:36;8.15;;;4.90;;
78860;SDS011;68211;45.774;15.892;2023-05-31T07:02:02;7.32;;;4.18;;
78860;SDS011;68211;45.774;15.892;2023-05-31T07:04:29;8.77;;;5.22;;
78860;SDS011;68211;45.774;15.892;2023-05-31T07:06:55;10.32;;;4.90;;
78860;SDS011;68211;45.774;15.892;2023-05-31T07:09:23;8.88;;;4.20;;
78860;SDS011;68211;45.774;15.892;2023-05-31T07:11:50;8.35;;;4.88;;
78860;SDS011;68211;45.774;15.892;2023-05-31T07:14:21;11.05;;;4.75;;
78860;SDS011;68211;45.774;15.892;2023-05-31T07:16:47;9.88;;;4.50;;
78860;SDS011;68211;45.774;15.892;2023-05-31T07:19:14;10.60;;;4.43;;
78860;SDS011;68211;45.774;15.892;2023-05-31T07:21:41;7.70;;;5.00;;
78860;SDS011;68211;45.774;15.892;2023-05-31T07:26:37;12.27;;;4.82;;
78860;SDS011;68211;45.774;15.892;2023-05-31T07:29:04;8.43;;;4.80;;
78860;SDS011;68211;45.774;15.892;2023-05-31T07:31:30;10.55;;;5.38;;
78860;SDS011;68211;45.774;15.892;2023-05-31T07:33:57;11.52;;;5.25;;
78860;SDS011;68211;45.774;15.892;2023-05-31T07:36:23;11.18;;;4.95;;
78860;SDS011;68211;45.774;15.892;2023-05-31T07:38:50;10.48;;;5.15;;
78860;SDS011;68211;45.774;15.892;2023-05-31T07:41:16;10.88;;;5.05;;
78860;SDS011;68211;45.774;15.892;2023-05-31T07:43:44;9.68;;;5.00;;
78860;SDS011;68211;45.774;15.892;2023-05-31T07:46:11;11.60;;;4.82;;
78860;SDS011;68211;45.774;15.892;2023-05-31T07:48:38;9.15;;;5.10;;
78860;SDS011;68211;45.774;15.892;2023-05-31T07:51:05;7.68;;;4.78;;
78860;SDS011;68211;45.774;15.892;2023-05-31T07:53:31;9.23;;;5.25;;
78860;SDS011;68211;45.774;15.892;2023-05-31T07:55:58;10.25;;;4.75;;
78860;SDS011;68211;45.774;15.892;2023-05-31T07:58:25;10.45;;;5.30;;
78860;SDS011;68211;45.774;15.892;2023-05-31T08:00:53;9.10;;;4.72;;
78860;SDS011;68211;45.774;15.892;2023-05-31T08:03:20;11.38;;;4.50;;
78860;SDS011;68211;45.774;15.892;2023-05-31T08:05:47;12.52;;;5.07;;
78860;SDS011;68211;45.774;15.892;2023-05-31T08:08:14;8.20;;;4.78;;
78860;SDS011;68211;45.774;15.892;2023-05-31T08:10:41;10.75;;;4.80;;
78860;SDS011;68211;45.774;15.892;2023-05-31T08:13:07;10.35;;;4.90;;
78860;SDS011;68211;45.774;15.892;2023-05-31T08:15:34;10.90;;;5.30;;
78860;SDS011;68211;45.774;15.892;2023-05-31T08:18:03;12.48;;;5.30;;
78860;SDS011;68211;45.774;15.892;2023-05-31T08:20:30;11.25;;;5.45;;
78860;SDS011;68211;45.774;15.892;2023-05-31T08:22:58;7.40;;;4.38;;
78860;SDS011;68211;45.774;15.892;2023-05-31T08:25:25;8.35;;;4.78;;
78860;SDS011;68211;45.774;15.892;2023-05-31T08:27:53;6.90;;;4.68;;
78860;SDS011;68211;45.774;15.892;2023-05-31T08:30:19;8.85;;;5.07;;
78860;SDS011;68211;45.774;15.892;2023-05-31T08:32:46;7.93;;;4.70;;
78860;SDS011;68211;45.774;15.892;2023-05-31T08:35:14;11.90;;;5.25;;
78860;SDS011;68211;45.774;15.892;2023-05-31T08:37:40;12.75;;;4.65;;
78860;SDS011;68211;45.774;15.892;2023-05-31T08:40:10;7.15;;;4.22;;
78860;SDS011;68211;45.774;15.892;2023-05-31T08:42:39;11.00;;;4.50;;
78860;SDS011;68211;45.774;15.892;2023-05-31T08:45:06;10.33;;;5.20;;
78860;SDS011;68211;45.774;15.892;2023-05-31T08:47:36;10.30;;;5.20;;
78860;SDS011;68211;45.774;15.892;2023-05-31T08:50:02;7.68;;;4.80;;
78860;SDS011;68211;45.774;15.892;2023-05-31T08:52:32;16.15;;;5.22;;
78860;SDS011;68211;45.774;15.892;2023-05-31T08:55:01;11.20;;;4.63;;
78860;SDS011;68211;45.774;15.892;2023-05-31T08:57:28;9.10;;;4.80;;
78860;SDS011;68211;45.774;15.892;2023-05-31T09:00:00;12.15;;;5.30;;
78860;SDS011;68211;45.774;15.892;2023-05-31T09:02:27;7.63;;;4.57;;
78860;SDS011;68211;45.774;15.892;2023-05-31T09:04:54;8.43;;;5.07;;
78860;SDS011;68211;45.774;15.892;2023-05-31T09:07:22;12.15;;;5.30;;
78860;SDS011;68211;45.774;15.892;2023-05-31T09:09:52;6.20;;;4.60;;
78860;SDS011;68211;45.774;15.892;2023-05-31T09:12:19;6.85;;;4.90;;
78860;SDS011;68211;45.774;15.892;2023-05-31T09:14:47;13.32;;;5.50;;
78860;SDS011;68211;45.774;15.892;2023-05-31T09:17:14;6.95;;;5.10;;
78860;SDS011;68211;45.774;15.892;2023-05-31T09:19:44;7.03;;;5.13;;
78860;SDS011;68211;45.774;15.892;2023-05-31T09:22:15;10.38;;;5.00;;
78860;SDS011;68211;45.774;15.892;2023-05-31T09:24:48;13.57;;;5.03;;
78860;SDS011;68211;45.774;15.892;2023-05-31T09:27:17;9.10;;;5.20;;
78860;SDS011;68211;45.774;15.892;2023-05-31T09:29:43;9.20;;;5.38;;
78860;SDS011;68211;45.774;15.892;2023-05-31T09:32:16;8.45;;;4.63;;
78860;SDS011;68211;45.774;15.892;2023-05-31T09:34:43;7.28;;;4.68;;
78860;SDS011;68211;45.774;15.892;2023-05-31T09:39:54;7.78;;;5.00;;
78860;SDS011;68211;45.774;15.892;2023-05-31T09:42:23;11.30;;;5.15;;
78860;SDS011;68211;45.774;15.892;2023-05-31T09:44:52;9.02;;;5.18;;
78860;SDS011;68211;45.774;15.892;2023-05-31T09:47:22;9.60;;;5.00;;
78860;SDS011;68211;45.774;15.892;2023-05-31T09:49:50;10.55;;;5.63;;
78860;SDS011;68211;45.774;15.892;2023-05-31T09:52:23;5.82;;;4.60;;
78860;SDS011;68211;45.774;15.892;2023-05-31T09:54:51;7.28;;;4.70;;
78860;SDS011;68211;45.774;15.892;2023-05-31T09:57:32;11.00;;;4.95;;
78860;SDS011;68211;45.774;15.892;2023-05-31T09:59:59;9.20;;;5.38;;
78860;SDS011;68211;45.774;15.892;2023-05-31T10:02:26;15.45;;;5.78;;
78860;SDS011;68211;45.774;15.892;2023-05-31T10:04:56;12.70;;;4.55;;
78860;SDS011;68211;45.774;15.892;2023-05-31T10:07:23;17.70;;;5.03;;
78860;SDS011;68211;45.774;15.892;2023-05-31T10:09:53;6.68;;;4.63;;
78860;SDS011;68211;45.774;15.892;2023-05-31T10:12:21;8.00;;;4.50;;
78860;SDS011;68211;45.774;15.892;2023-05-31T10:14:53;9.00;;;4.40;;
78860;SDS011;68211;45.774;15.892;2023-05-31T10:17:23;7.40;;;5.25;;
78860;SDS011;68211;45.774;15.892;2023-05-31T10:19:53;8.18;;;5.03;;
78860;SDS011;68211;45.774;15.892;2023-05-31T10:22:21;6.03;;;4.30;;
78860;SDS011;68211;45.774;15.892;2023-05-31T10:24:49;10.15;;;4.93;;
78860;SDS011;68211;45.774;15.892;2023-05-31T10:27:21;12.80;;;4.93;;
78860;SDS011;68211;45.774;15.892;2023-05-31T10:29:50;7.78;;;4.95;;
78860;SDS011;68211;45.774;15.892;2023-05-31T10:32:19;7.28;;;4.93;;
78860;SDS011;68211;45.774;15.892;2023-05-31T10:34:49;11.00;;;4.93;;
78860;SDS011;68211;45.774;15.892;2023-05-31T10:37:16;10.60;;;5.47;;
78860;SDS011;68211;45.774;15.892;2023-05-31T10:39:44;8.77;;;5.70;;
78860;SDS011;68211;45.774;15.892;2023-05-31T10:44:40;8.77;;;5.35;;
78860;SDS011;68211;45.774;15.892;2023-05-31T10:47:09;8.18;;;5.18;;
78860;SDS011;68211;45.774;15.892;2023-05-31T10:49:40;10.05;;;5.50;;
78860;SDS011;68211;45.774;15.892;2023-05-31T10:52:08;11.27;;;5.90;;
78860;SDS011;68211;45.774;15.892;2023-05-31T10:54:35;7.80;;;4.70;;
78860;SDS011;68211;45.774;15.892;2023-05-31T10:57:05;8.73;;;5.22;;
78860;SDS011;68211;45.774;15.892;2023-05-31T10:59:42;9.88;;;5.25;;
78860;SDS011;68211;45.774;15.892;2023-05-31T11:02:11;8.35;;;4.90;;
78860;SDS011;68211;45.774;15.892;2023-05-31T11:04:43;9.10;;;5.10;;
78860;SDS011;68211;45.774;15.892;2023-05-31T11:07:11;9.43;;;4.72;;
78860;SDS011;68211;45.774;15.892;2023-05-31T11:09:39;9.18;;;5.57;;
78860;SDS011;68211;45.774;15.892;2023-05-31T11:12:16;8.20;;;5.07;;
78860;SDS011;68211;45.774;15.892;2023-05-31T11:14:58;9.30;;;5.50;;
78860;SDS011;68211;45.774;15.892;2023-05-31T11:17:26;8.57;;;5.18;;
78860;SDS011;68211;45.774;15.892;2023-05-31T11:19:54;9.80;;;5.22;;
78860;SDS011;68211;45.774;15.892;2023-05-31T11:22:27;10.93;;;5.57;;
78860;SDS011;68211;45.774;15.892;2023-05-31T11:24:54;8.30;;;5.25;;
78860;SDS011;68211;45.774;15.892;2023-05-31T11:27:22;8.45;;;5.15;;
78860;SDS011;68211;45.774;15.892;2023-05-31T11:29:57;7.38;;;4.93;;
78860;SDS011;68211;45.774;15.892;2023-05-31T11:35:11;16.10;;;5.45;;
78860;SDS011;68211;45.774;15.892;2023-05-31T11:37:42;11.80;;;5.10;;
78860;SDS011;68211;45.774;15.892;2023-05-31T11:40:10;9.57;;;5.43;;
78860;SDS011;68211;45.774;15.892;2023-05-31T11:42:38;10.93;;;5.75;;
78860;SDS011;68211;45.774;15.892;2023-05-31T11:45:05;7.97;;;5.57;;
78860;SDS011;68211;45.774;15.892;2023-05-31T11:47:36;10.02;;;5.70;;
78860;SDS011;68211;45.774;15.892;2023-05-31T11:50:06;8.93;;;5.68;;
78860;SDS011;68211;45.774;15.892;2023-05-31T11:52:35;10.63;;;5.80;;
78860;SDS011;68211;45.774;15.892;2023-05-31T11:55:04;12.57;;;5.63;;
78860;SDS011;68211;45.774;15.892;2023-05-31T11:57:40;10.25;;;5.65;;
78860;SDS011;68211;45.774;15.892;2023-05-31T12:00:08;11.68;;;5.55;;
78860;SDS011;68211;45.774;15.892;2023-05-31T12:02:37;8.93;;;5.40;;
78860;SDS011;68211;45.774;15.892;2023-05-31T12:05:04;13.35;;;6.00;;
78860;SDS011;68211;45.774;15.892;2023-05-31T12:07:32;15.77;;;5.80;;
78860;SDS011;68211;45.774;15.892;2023-05-31T12:10:03;9.13;;;5.47;;
78860;SDS011;68211;45.774;15.892;2023-05-31T12:12:31;8.43;;;5.47;;
78860;SDS011;68211;45.774;15.892;2023-05-31T12:14:58;12.30;;;5.18;;
78860;SDS011;68211;45.774;15.892;2023-05-31T12:17:25;9.77;;;6.20;;
78860;SDS011;68211;45.774;15.892;2023-05-31T12:19:55;8.85;;;5.65;;
78860;SDS011;68211;45.774;15.892;2023-05-31T12:22:25;12.88;;;5.55;;
78860;SDS011;68211;45.774;15.892;2023-05-31T12:24:54;16.92;;;5.80;;
78860;SDS011;68211;45.774;15.892;2023-05-31T12:27:24;9.80;;;5.68;;
78860;SDS011;68211;45.774;15.892;2023-05-31T12:30:12;9.95;;;5.43;;
78860;SDS011;68211;45.774;15.892;2023-05-31T12:32:44;9.55;;;5.65;;
78860;SDS011;68211;45.774;15.892;2023-05-31T12:35:13;10.63;;;5.63;;
78860;SDS011;68211;45.774;15.892;2023-05-31T12:37:43;10.10;;;5.97;;
78860;SDS011;68211;45.774;15.892;2023-05-31T12:40:11;9.35;;;5.68;;
78860;SDS011;68211;45.774;15.892;2023-05-31T12:42:49;7.80;;;5.47;;
78860;SDS011;68211;45.774;15.892;2023-05-31T12:45:17;9.30;;;5.47;;
78860;SDS011;68211;45.774;15.892;2023-05-31T12:47:44;9.18;;;5.20;;
78860;SDS011;68211;45.774;15.892;2023-05-31T12:50:12;9.68;;;5.30;;
78860;SDS011;68211;45.774;15.892;2023-05-31T12:52:42;7.38;;;5.45;;
78860;SDS011;68211;45.774;15.892;2023-05-31T12:55:10;10.43;;;5.28;;
78860;SDS011;68211;45.774;15.892;2023-05-31T12:57:44;8.80;;;5.57;;
78860;SDS011;68211;45.774;15.892;2023-05-31T13:00:12;9.43;;;5.30;;
78860;SDS011;68211;45.774;15.892;2023-05-31T13:02:40;7.75;;;5.57;;
78860;SDS011;68211;45.774;15.892;2023-05-31T13:05:09;8.25;;;5.13;;
78860;SDS011;68211;45.774;15.892;2023-05-31T13:07:39;11.30;;;5.82;;
78860;SDS011;68211;45.774;15.892;2023-05-31T13:10:10;10.80;;;5.88;;
78860;SDS011;68211;45.774;15.892;2023-05-31T13:12:39;7.60;;;5.15;;
78860;SDS011;68211;45.774;15.892;2023-05-31T13:15:09;9.88;;;5.07;;
78860;SDS011;68211;45.774;15.892;2023-05-31T13:17:39;8.80;;;5.32;;
78860;SDS011;68211;45.774;15.892;2023-05-31T13:20:09;8.38;;;5.03;;
78860;SDS011;68211;45.774;15.892;2023-05-31T13:22:40;7.97;;;5.55;;
78860;SDS011;68211;45.774;15.892;2023-05-31T13:25:08;6.63;;;5.17;;
78860;SDS011;68211;45.774;15.892;2023-05-31T13:27:35;9.35;;;5.20;;
78860;SDS011;68211;45.774;15.892;2023-05-31T13:30:02;9.27;;;5.75;;
78860;SDS011;68211;45.774;15.892;2023-05-31T13:32:30;12.85;;;6.07;;
78860;SDS011;68211;45.774;15.892;2023-05-31T13:34:56;10.10;;;5.75;;
78860;SDS011;68211;45.774;15.892;2023-05-31T13:37:26;11.60;;;5.93;;
78860;SDS011;68211;45.774;15.892;2023-05-31T13:39:53;9.93;;;5.88;;
78860;SDS011;68211;45.774;15.892;2023-05-31T13:42:19;12.63;;;6.18;;
78860;SDS011;68211;45.774;15.892;2023-05-31T13:44:46;7.20;;;5.38;;
78860;SDS011;68211;45.774;15.892;2023-05-31T13:47:12;12.40;;;6.35;;
78860;SDS011;68211;45.774;15.892;2023-05-31T13:49:40;7.32;;;5.70;;
78860;SDS011;68211;45.774;15.892;2023-05-31T13:52:07;9.82;;;5.70;;
78860;SDS011;68211;45.774;15.892;2023-05-31T13:54:33;9.95;;;5.88;;
78860;SDS011;68211;45.774;15.892;2023-05-31T13:57:00;8.70;;;5.90;;
78860;SDS011;68211;45.774;15.892;2023-05-31T13:59:26;15.00;;;6.00;;
78860;SDS011;68211;45.774;15.892;2023-05-31T14:01:53;12.52;;;5.43;;
78860;SDS011;68211;45.774;15.892;2023-05-31T14:04:19;11.15;;;5.82;;
78860;SDS011;68211;45.774;15.892;2023-05-31T14:06:53;11.02;;;5.65;;
78860;SDS011;68211;45.774;15.892;2023-05-31T14:09:20;9.55;;;6.18;;
78860;SDS011;68211;45.774;15.892;2023-05-31T14:11:46;8.25;;;5.95;;
78860;SDS011;68211;45.774;15.892;2023-05-31T14:14:13;8.40;;;5.88;;
78860;SDS011;68211;45.774;15.892;2023-05-31T14:16:40;9.30;;;6.22;;
78860;SDS011;68211;45.774;15.892;2023-05-31T14:19:06;9.45;;;5.82;;
78860;SDS011;68211;45.774;15.892;2023-05-31T14:21:32;10.32;;;5.97;;
78860;SDS011;68211;45.774;15.892;2023-05-31T14:24:01;7.97;;;5.78;;
78860;SDS011;68211;45.774;15.892;2023-05-31T14:26:27;8.80;;;6.07;;
78860;SDS011;68211;45.774;15.892;2023-05-31T14:28:54;9.27;;;5.38;;
78860;SDS011;68211;45.774;15.892;2023-05-31T14:31:20;12.85;;;6.30;;
78860;SDS011;68211;45.774;15.892;2023-05-31T14:33:47;9.25;;;5.80;;
78860;SDS011;68211;45.774;15.892;2023-05-31T14:36:13;11.43;;;6.00;;
78860;SDS011;68211;45.774;15.892;2023-05-31T14:38:40;9.00;;;5.35;;
78860;SDS011;68211;45.774;15.892;2023-05-31T14:41:08;9.38;;;5.78;;
78860;SDS011;68211;45.774;15.892;2023-05-31T14:43:34;8.02;;;5.93;;